Terminal Aerodrome Forecast
Issued by NWS

Home | Current Version | Previous Version | Text Only | Print | Product List | Glossary On
Versions: 1 2 3 4 5 6 7 8 9 10 11 12 13 14
000
FTUS45 KTFX 010500
TAFCTB
TAF
KCTB 010520Z 0106/0206 25007KT P6SM SKC
     FM011200 26008KT P6SM BKN120
     FM011700 34014KT P6SM VCSH SCT050 OVC070
     FM012100 01008KT P6SM -SHRA SCT030 OVC050 PROB30 0122/0204 4SM
      -SHRASN BR SCT015 OVC030=

USA.gov is the U.S. government's official web portal to all federal, state and local government web resources and services.